NCAR-RAP Real-Time Weather Data

Output produced by METARs form (26 May 2022  07:38 UTC)
found at http://weather.rap.ucar.edu/surface/
 
KGRB 260653Z AUTO 36004KT 3/4SM BR VV002 14/13 A2972 RMK AO2 LTG DSNT S SLP066 T01390128 RVRNO
KGRB 260646Z AUTO 03005KT 3/4SM BR VV003 14/13 A2972 RMK AO2 LTG DSNT S T01390128 RVRNO
KGRB 260624Z AUTO 01005KT 1 3/4SM BR OVC002 14/12 A2973 RMK AO2 T01390122
KGRB 260553Z AUTO 03004KT 8SM OVC002 14/13 A2975 RMK AO2 SLP075 60053 T01440128 10144 20139 401500122 58008
KGRB 260453Z AUTO 04004KT 10SM OVC002 14/13 A2976 RMK AO2 RAB0357E09 SLP078 P0000 T01440128
KGRB 260416Z 05005KT 10SM BKN004 OVC037 14/12 A2976 RMK AO2 RAB0357E09 P0000 T01390122
KGRB 260353Z 04006KT 10SM BKN007 BKN039 OVC060 14/12 A2977 RMK AO2 RAE45 SLP082 P0006 T01440122
KGRB 260349Z 05006KT 10SM BKN007 BKN025 OVC050 14/12 A2977 RMK AO2 RAE45 P0006
KGRB 260324Z 05007KT 8SM -RA FEW004 BKN010 OVC023 14/12 A2978 RMK AO2 P0006 T01440122
KGRB 260253Z 03006KT 6SM -RA BR OVC006 14/13 A2979 RMK AO2 SLP089 P0005 60047 T01440128 58008
KGRB 260231Z 05007KT 5SM -RA BR OVC009 14/12 A2980 RMK AO2 P0002 T01440122
KGRB 260153Z 06004KT 9SM -RA FEW004 OVC013 14/13 A2979 RMK AO2 SLP090 P0010 T01440128
KGRB 260146Z 07005KT 10SM -RA FEW004 BKN013 OVC025 14/12 A2980 RMK AO2 P0010 T01440122
KGRB 260115Z 05005KT 5SM -RA BR SCT004 BKN017 OVC029 14/12 A2981 RMK AO2 P0007 T01390122
KGRB 260108Z 04005KT 2 1/2SM RA BR BKN004 BKN012 OVC018 14/12 A2981 RMK AO2 P0006 T01390122
KGRB 260053Z 01004KT 1 1/4SM +RA BR FEW005 BKN014 OVC018 14/12 A2982 RMK AO2 SLP099 P0032 T01390122
KGRB 260051Z 02005KT 1 1/4SM +RA BR FEW005 BKN010 OVC018 14/12 A2982 RMK AO2 P0031
KGRB 260043Z 03006KT 2SM +RA BR FEW005 OVC010 14/12 A2982 RMK AO2 P0025 T01390122
KGRB 260011Z 01008KT 1 1/4SM +RA BR SCT004 OVC012 14/12 A2981 RMK AO2 P0011 T01440122
KGRB 260000Z 01007KT 1 1/4SM +RA BR BKN004 BKN010 OVC019 14/12 A2983 RMK AO2 P0003 T01440122
KGRB 252353Z 02007KT 1 3/4SM RA BR BKN006 BKN011 OVC019 14/12 A2983 RMK AO2 SLP102 P0013 60059 T01440122 10144 20122 58024
KGRB 252345Z 04008KT 2 1/2SM -RA BR BKN006 BKN013 OVC031 14/12 A2983 RMK AO2 P0011 T01440122
KGRB 252343Z 04008KT 3SM RA BR BKN004 BKN009 OVC031 14/12 A2983 RMK AO2 P0011 T01440122
KGRB 252253Z 05006KT 3SM RA BR OVC005 14/12 A2986 RMK AO2 SLP114 P0009 T01440122
KGRB 252153Z 06008KT 4SM RA BR OVC005 14/12 A2987 RMK AO2 SLP116 P0006 T01390122
KGRB 252053Z 06009KT 6SM -RA BR OVC005 13/11 A2990 RMK AO2 SLP126 P0004 60031 T01330111 58030
KGRB 251953Z 05012KT 4SM -RA BR BKN005 OVC011 13/11 A2993 RMK AO2 SLP137 P0022 T01280111